Time;durP1;ratioP1;P1;durP2;ratioP2;P2;SDS_P1;SDS_P2;PMS_P1;PMS_P2;Temp;Humidity;BMP_temperature;BMP_pressure;BME280_temperature;BME280_humidity;BME280_pressure;Samples;Min_cycle;Max_cycle;Signal;HPM_P1;HPM_P2
2023/04/06 00:01:08;;;;;;;63.60;25.05;;;;;;;;;;5073889;28;20052;-81
2023/04/06 00:03:34;;;;;;;58.95;24.58;;;;;;;;;;5072793;28;20032;-81
2023/04/06 00:05:59;;;;;;;65.38;25.70;;;;;;;;;;5077500;28;20033;-81
2023/04/06 00:08:26;;;;;;;50.70;20.75;;;;;;;;;;5073926;28;20094;-82
2023/04/06 00:10:51;;;;;;;54.22;22.45;;;;;;;;;;5073955;28;20067;-81
2023/04/06 00:13:16;;;;;;;60.20;22.60;;;;;;;;;;5074453;28;20029;-81
2023/04/06 00:15:42;;;;;;;63.00;26.13;;;;;;;;;;5080754;28;20016;-81
2023/04/06 00:18:07;;;;;;;59.55;24.35;;;;;;;;;;5075797;28;20434;-80
2023/04/06 00:20:33;;;;;;;57.38;24.40;;;;;;;;;;5073967;28;20047;-81
2023/04/06 00:22:58;;;;;;;71.28;25.73;;;;;;;;;;5072742;28;20154;-81
2023/04/06 00:25:24;;;;;;;60.92;25.98;;;;;;;;;;5055805;28;20109;-81
2023/04/06 00:27:50;;;;;;;52.08;22.85;;;;;;;;;;5079985;28;20033;-81
2023/04/06 00:30:15;;;;;;;59.75;24.20;;;;;;;;;;5072569;28;20044;-81
2023/04/06 00:32:40;;;;;;;59.05;22.88;;;;;;;;;;5071985;28;20048;-80
2023/04/06 00:35:06;;;;;;;59.47;24.80;;;;;;;;;;5078861;28;20021;-81
2023/04/06 00:37:32;;;;;;;79.25;34.20;;;;;;;;;;5076176;28;20032;-81
2023/04/06 00:39:57;;;;;;;51.70;20.85;;;;;;;;;;5072302;28;20036;-80
2023/04/06 00:42:25;;;;;;;66.13;26.23;;;;;;;;;;5073394;28;20051;-81
2023/04/06 00:44:55;;;;;;;62.22;23.90;;;;;;;;;;5073897;28;20069;-81
2023/04/06 00:47:22;;;;;;;67.53;25.45;;;;;;;;;;5076121;28;20448;-81
2023/04/06 00:49:47;;;;;;;61.90;25.13;;;;;;;;;;5073835;28;20036;-80
2023/04/06 00:52:13;;;;;;;62.20;25.45;;;;;;;;;;5072146;28;20035;-80
2023/04/06 00:54:38;;;;;;;53.35;21.70;;;;;;;;;;5079160;28;20087;-80
2023/04/06 00:57:04;;;;;;;62.47;26.05;;;;;;;;;;5076042;28;20035;-81
2023/04/06 00:59:29;;;;;;;71.03;29.13;;;;;;;;;;5070652;28;20453;-81
2023/04/06 01:01:55;;;;;;;58.60;23.27;;;;;;;;;;5071992;28;20442;-81
2023/04/06 01:04:22;;;;;;;52.85;21.73;;;;;;;;;;5072351;28;20035;-81
2023/04/06 01:06:48;;;;;;;56.13;22.02;;;;;;;;;;5073405;28;20036;-82
2023/04/06 01:09:14;;;;;;;57.00;23.85;;;;;;;;;;5076314;28;20044;-81
2023/04/06 01:11:39;;;;;;;62.17;23.08;;;;;;;;;;5072382;28;20116;-81
2023/04/06 01:14:05;;;;;;;59.13;23.70;;;;;;;;;;5075526;28;20098;-81
2023/04/06 01:16:31;;;;;;;62.75;25.00;;;;;;;;;;5079756;28;20033;-81
2023/04/06 01:18:56;;;;;;;55.55;23.00;;;;;;;;;;5073480;28;20458;-82
2023/04/06 01:21:21;;;;;;;56.95;22.83;;;;;;;;;;5073271;28;20040;-82
2023/04/06 01:23:47;;;;;;;53.22;20.90;;;;;;;;;;5073220;28;20029;-82
2023/04/06 01:26:13;;;;;;;62.03;22.75;;;;;;;;;;5055524;28;20111;-81
2023/04/06 01:28:38;;;;;;;49.85;20.42;;;;;;;;;;5073440;28;20098;-80
2023/04/06 01:31:07;;;;;;;56.53;23.67;;;;;;;;;;5075402;28;20032;-80
2023/04/06 01:33:33;;;;;;;63.38;24.25;;;;;;;;;;5073048;28;20028;-80
2023/04/06 01:35:59;;;;;;;59.88;23.55;;;;;;;;;;5075532;28;20508;-80
2023/04/06 01:38:25;;;;;;;51.75;21.88;;;;;;;;;;5073718;28;20061;-80
2023/04/06 01:40:50;;;;;;;59.17;24.00;;;;;;;;;;5074150;28;20084;-81
2023/04/06 01:43:16;;;;;;;56.55;23.45;;;;;;;;;;5075730;28;20455;-82
2023/04/06 01:45:41;;;;;;;59.80;23.85;;;;;;;;;;5076853;28;20403;-82
2023/04/06 01:48:07;;;;;;;60.78;23.73;;;;;;;;;;5076446;28;20071;-81
2023/04/06 01:50:32;;;;;;;64.85;22.90;;;;;;;;;;5077610;28;20036;-81
2023/04/06 01:52:58;;;;;;;57.13;22.75;;;;;;;;;;5076726;28;20090;-81
2023/04/06 01:55:23;;;;;;;53.13;21.55;;;;;;;;;;5076593;28;20024;-81
2023/04/06 01:57:49;;;;;;;58.42;25.35;;;;;;;;;;5076486;28;20040;-81
2023/04/06 02:00:15;;;;;;;55.10;22.30;;;;;;;;;;5075289;28;20143;-81
2023/04/06 02:02:41;;;;;;;49.15;20.63;;;;;;;;;;5076647;28;20036;-81
2023/04/06 02:05:07;;;;;;;56.17;23.27;;;;;;;;;;5074827;28;20032;-81
2023/04/06 02:07:32;;;;;;;54.60;21.38;;;;;;;;;;5076374;28;20031;-81
2023/04/06 02:09:58;;;;;;;57.90;22.17;;;;;;;;;;5075279;28;20385;-81
2023/04/06 02:12:23;;;;;;;62.13;22.23;;;;;;;;;;5078057;28;20397;-81
2023/04/06 02:14:49;;;;;;;55.97;22.63;;;;;;;;;;5077069;28;20052;-81
2023/04/06 02:17:14;;;;;;;56.90;23.38;;;;;;;;;;5076470;28;20020;-80
2023/04/06 02:19:40;;;;;;;61.15;22.00;;;;;;;;;;5074999;28;20060;-81
2023/04/06 02:22:05;;;;;;;60.35;23.65;;;;;;;;;;5074812;28;20032;-81
2023/04/06 02:24:31;;;;;;;58.53;23.58;;;;;;;;;;5076267;28;20024;-80
2023/04/06 02:26:56;;;;;;;53.30;22.23;;;;;;;;;;5075956;28;20062;-80
2023/04/06 02:29:22;;;;;;;54.17;23.05;;;;;;;;;;5076350;28;20093;-80
2023/04/06 02:31:47;;;;;;;54.17;22.17;;;;;;;;;;5074935;28;20029;-81
2023/04/06 02:34:17;;;;;;;53.58;21.48;;;;;;;;;;5078125;28;20357;-81
2023/04/06 02:36:47;;;;;;;57.50;23.60;;;;;;;;;;5075930;28;20162;-81
2023/04/06 02:39:13;;;;;;;51.45;19.92;;;;;;;;;;5076008;28;20029;-81
2023/04/06 02:41:39;;;;;;;57.90;22.27;;;;;;;;;;5075641;28;20041;-81
2023/04/06 02:44:07;;;;;;;61.00;22.55;;;;;;;;;;5074557;28;20037;-80
2023/04/06 02:46:32;;;;;;;52.25;22.17;;;;;;;;;;5041000;28;20079;-81
2023/04/06 02:49:00;;;;;;;52.60;21.98;;;;;;;;;;5075017;28;20462;-81
2023/04/06 02:51:26;;;;;;;57.60;23.63;;;;;;;;;;5075033;28;20029;-80
2023/04/06 02:53:51;;;;;;;51.78;22.00;;;;;;;;;;5078973;28;20056;-81
2023/04/06 02:56:17;;;;;;;56.25;22.95;;;;;;;;;;5074074;28;20032;-81
2023/04/06 02:58:42;;;;;;;59.85;22.80;;;;;;;;;;5075531;28;20122;-81
2023/04/06 03:01:07;;;;;;;54.85;21.67;;;;;;;;;;5075030;28;20025;-80
2023/04/06 03:03:33;;;;;;;58.28;23.75;;;;;;;;;;5075008;28;20449;-81
2023/04/06 03:05:59;;;;;;;55.38;23.45;;;;;;;;;;5073818;28;20131;-81
2023/04/06 03:08:25;;;;;;;54.78;22.50;;;;;;;;;;5073752;28;20470;-81
2023/04/06 03:10:50;;;;;;;65.88;24.45;;;;;;;;;;5075103;28;20075;-81
2023/04/06 03:13:16;;;;;;;61.50;24.58;;;;;;;;;;5080201;28;20088;-82
2023/04/06 03:15:41;;;;;;;62.88;24.30;;;;;;;;;;5075522;28;20035;-80
2023/04/06 03:18:07;;;;;;;61.53;23.55;;;;;;;;;;5073515;28;20032;-81
2023/04/06 03:20:32;;;;;;;54.42;22.50;;;;;;;;;;5074799;28;20494;-81
2023/04/06 03:22:58;;;;;;;63.67;25.08;;;;;;;;;;5057019;28;20378;-81
2023/04/06 03:25:24;;;;;;;56.65;23.90;;;;;;;;;;5056935;28;20370;-80
2023/04/06 03:27:49;;;;;;;69.25;25.10;;;;;;;;;;5074937;28;20071;-83
2023/04/06 03:30:17;;;;;;;61.13;24.38;;;;;;;;;;5056917;28;20185;-80
2023/04/06 03:32:43;;;;;;;61.92;23.50;;;;;;;;;;5073693;28;20408;-81
2023/04/06 03:35:08;;;;;;;60.97;25.20;;;;;;;;;;5083437;28;20064;-81
2023/04/06 03:37:34;;;;;;;65.38;24.88;;;;;;;;;;5076248;28;20089;-80
2023/04/06 03:40:00;;;;;;;55.67;21.20;;;;;;;;;;5074713;28;20036;-81
2023/04/06 03:42:26;;;;;;;56.83;23.10;;;;;;;;;;5056455;28;20051;-81
2023/04/06 03:44:52;;;;;;;46.85;20.20;;;;;;;;;;5074642;28;20051;-82
2023/04/06 03:47:17;;;;;;;61.05;23.73;;;;;;;;;;5074227;28;20032;-83
2023/04/06 03:49:43;;;;;;;68.30;24.17;;;;;;;;;;5074062;28;20067;-82
2023/04/06 03:52:08;;;;;;;55.58;21.80;;;;;;;;;;5073688;28;20033;-81
2023/04/06 03:54:34;;;;;;;49.38;19.27;;;;;;;;;;5078094;28;20041;-82
2023/04/06 03:57:00;;;;;;;60.78;21.25;;;;;;;;;;5077935;28;20024;-82
2023/04/06 03:59:25;;;;;;;61.58;23.73;;;;;;;;;;5077435;28;20033;-82
2023/04/06 04:01:51;;;;;;;54.17;21.88;;;;;;;;;;5076135;28;20029;-81
2023/04/06 04:04:16;;;;;;;52.72;23.05;;;;;;;;;;5073188;28;20403;-81
2023/04/06 04:06:42;;;;;;;50.42;22.13;;;;;;;;;;5078094;28;20381;-80
2023/04/06 04:09:07;;;;;;;57.55;23.25;;;;;;;;;;5074739;28;20032;-81
2023/04/06 04:11:33;;;;;;;60.35;23.65;;;;;;;;;;5075382;28;20408;-82
2023/04/06 04:13:58;;;;;;;59.10;22.58;;;;;;;;;;5078344;28;20032;-81
2023/04/06 04:16:23;;;;;;;55.30;22.40;;;;;;;;;;5074125;28;20127;-82
2023/04/06 04:18:49;;;;;;;60.80;24.20;;;;;;;;;;5077976;28;20044;-82
2023/04/06 04:21:15;;;;;;;61.42;23.60;;;;;;;;;;5074312;28;20032;-82
2023/04/06 04:23:40;;;;;;;60.72;23.05;;;;;;;;;;5073944;28;20533;-82
2023/04/06 04:26:05;;;;;;;56.65;22.52;;;;;;;;;;5073773;28;20029;-82
2023/04/06 04:28:31;;;;;;;57.45;23.95;;;;;;;;;;5074085;28;20066;-82
2023/04/06 04:30:56;;;;;;;55.60;23.77;;;;;;;;;;5075209;28;20028;-81
2023/04/06 04:33:22;;;;;;;51.47;21.75;;;;;;;;;;5075688;28;20020;-81
2023/04/06 04:35:48;;;;;;;42.75;18.42;;;;;;;;;;5069032;28;20036;-83
2023/04/06 04:38:13;;;;;;;64.40;24.42;;;;;;;;;;5075102;28;20032;-81
2023/04/06 04:40:39;;;;;;;53.10;22.60;;;;;;;;;;5070899;28;20033;-80
2023/04/06 04:43:05;;;;;;;55.95;24.13;;;;;;;;;;5073146;28;20050;-82
2023/04/06 04:45:30;;;;;;;62.30;24.13;;;;;;;;;;5074221;28;20032;-82
2023/04/06 04:47:56;;;;;;;52.28;20.85;;;;;;;;;;5068503;28;20033;-83
2023/04/06 04:50:22;;;;;;;62.63;23.90;;;;;;;;;;5066415;28;20033;-84
2023/04/06 04:52:49;;;;;;;45.47;19.20;;;;;;;;;;5074510;28;20078;-82
2023/04/06 04:55:14;;;;;;;58.30;23.02;;;;;;;;;;5054967;28;20024;-85
2023/04/06 04:57:40;;;;;;;50.85;22.35;;;;;;;;;;5072803;28;20039;-82
2023/04/06 05:00:06;;;;;;;57.25;24.02;;;;;;;;;;5063875;28;20040;-83
2023/04/06 05:02:49;;;;;;;55.40;21.40;;;;;;;;;;5080290;28;20044;-86
2023/04/06 05:05:25;;;;;;;56.40;23.73;;;;;;;;;;5069517;28;20043;-84
2023/04/06 05:07:51;;;;;;;49.22;20.95;;;;;;;;;;5075925;28;20259;-80
2023/04/06 05:10:22;;;;;;;49.58;21.27;;;;;;;;;;5074708;28;20052;-84
2023/04/06 05:13:03;;;;;;;50.13;22.23;;;;;;;;;;5060438;28;20029;-82
2023/04/06 05:15:28;;;;;;;;;;;;;;;;;;5056355;28;20064;-82
2023/04/06 05:17:54;;;;;;;51.72;22.77;;;;;;;;;;5072153;22;20023;-80
2023/04/06 05:20:19;;;;;;;51.25;21.75;;;;;;;;;;5324825;22;20333;-84
2023/04/06 05:22:58;;;;;;;55.10;23.02;;;;;;;;;;5053683;28;20104;-87
2023/04/06 05:43:18;;;;;;;49.65;21.50;;;;;;;;;;5753221;22;20488;-85
2023/04/06 05:45:50;;;;;;;49.13;20.88;;;;;;;;;;5040964;28;20037;-86
2023/04/06 05:48:15;;;;;;;47.80;21.00;;;;;;;;;;5062766;28;20107;-89
2023/04/06 05:50:41;;;;;;;51.13;20.63;;;;;;;;;;5039696;28;20029;-87
2023/04/06 05:53:06;;;;;;;42.45;18.52;;;;;;;;;;5056296;28;20510;-86
2023/04/06 05:55:32;;;;;;;48.88;21.67;;;;;;;;;;5052385;28;20036;-87
2023/04/06 05:57:57;;;;;;;54.72;20.88;;;;;;;;;;5027122;28;20072;-89
2023/04/06 06:00:26;;;;;;;46.80;20.48;;;;;;;;;;5041579;28;20038;-84
2023/04/06 06:02:59;;;;;;;45.75;20.27;;;;;;;;;;5015041;28;20041;-87
2023/04/06 06:05:37;;;;;;;46.05;18.92;;;;;;;;;;5041213;28;20069;-86
2023/04/06 06:08:02;;;;;;;58.60;20.98;;;;;;;;;;5059033;28;20579;-84
2023/04/06 06:10:28;;;;;;;48.47;20.70;;;;;;;;;;5050972;28;20025;-84
2023/04/06 06:12:54;;;;;;;47.03;19.83;;;;;;;;;;5058346;28;20108;-86
2023/04/06 06:15:20;;;;;;;45.13;18.60;;;;;;;;;;5050297;28;20036;-87
2023/04/06 06:17:45;;;;;;;59.20;20.67;;;;;;;;;;5015850;28;20065;-85
2023/04/06 06:20:11;;;;;;;47.30;20.73;;;;;;;;;;5050534;28;20084;-87
2023/04/06 06:22:37;;;;;;;43.85;18.52;;;;;;;;;;5044331;28;20029;-86
2023/04/06 06:25:03;;;;;;;60.88;23.52;;;;;;;;;;5048179;28;20071;-87
2023/04/06 06:27:29;;;;;;;46.33;19.85;;;;;;;;;;5038598;28;20033;-87
2023/04/06 06:30:34;;;;;;;41.85;19.08;;;;;;;;;;5060966;28;20040;-85
2023/04/06 06:33:03;;;;;;;45.88;19.58;;;;;;;;;;5050385;28;20037;-89
2023/04/06 06:35:28;;;;;;;42.95;19.65;;;;;;;;;;5050942;28;20029;-88
2023/04/06 06:37:54;;;;;;;43.92;19.60;;;;;;;;;;5033171;28;20036;-84
2023/04/06 06:40:23;;;;;;;53.63;21.08;;;;;;;;;;5056502;28;20040;-88
2023/04/06 06:42:49;;;;;;;50.80;20.60;;;;;;;;;;5060031;28;20053;-87
2023/04/06 06:45:15;;;;;;;41.92;19.80;;;;;;;;;;5057958;28;20029;-88
2023/04/06 06:47:41;;;;;;;45.33;18.17;;;;;;;;;;5069283;28;20013;-84
2023/04/06 06:50:07;;;;;;;47.13;19.50;;;;;;;;;;5020318;28;20044;-86
2023/04/06 06:52:42;;;;;;;51.33;21.58;;;;;;;;;;5026795;28;20035;-86
2023/04/06 06:55:09;;;;;;;40.53;17.95;;;;;;;;;;5045720;28;20029;-88
2023/04/06 06:57:34;;;;;;;46.92;20.42;;;;;;;;;;5040177;28;20029;-85
2023/04/06 07:00:24;;;;;;;45.90;18.52;;;;;;;;;;5057560;28;20052;-85
2023/04/06 07:02:54;;;;;;;35.30;15.45;;;;;;;;;;5053762;28;20036;-85
2023/04/06 07:05:23;;;;;;;43.03;17.88;;;;;;;;;;5062005;28;20020;-82
2023/04/06 07:07:48;;;;;;;46.78;19.13;;;;;;;;;;5058430;28;20024;-84
2023/04/06 07:10:16;;;;;;;39.70;18.83;;;;;;;;;;5043357;28;20033;-87
2023/04/06 07:12:41;;;;;;;41.55;18.88;;;;;;;;;;5049778;28;20073;-84
2023/04/06 07:15:10;;;;;;;38.65;17.92;;;;;;;;;;5031326;28;20390;-84
2023/04/06 07:17:35;;;;;;;38.17;17.38;;;;;;;;;;5043303;28;20051;-82
2023/04/06 07:20:01;;;;;;;45.58;19.25;;;;;;;;;;5048564;28;20052;-87
2023/04/06 07:22:30;;;;;;;41.65;18.63;;;;;;;;;;5038125;28;20105;-87
2023/04/06 07:24:58;;;;;;;39.25;18.83;;;;;;;;;;5039686;28;20099;-86
2023/04/06 07:27:36;;;;;;;41.20;18.55;;;;;;;;;;5053955;28;20040;-86
2023/04/06 07:30:02;;;;;;;41.70;18.45;;;;;;;;;;5062092;28;20107;-86
2023/04/06 07:32:28;;;;;;;50.22;21.65;;;;;;;;;;5039203;28;20045;-88
2023/04/06 07:34:53;;;;;;;40.42;16.05;;;;;;;;;;5036655;28;20037;-88
2023/04/06 07:37:23;;;;;;;36.28;14.98;;;;;;;;;;5053575;28;20040;-90
2023/04/06 07:39:49;;;;;;;54.63;16.38;;;;;;;;;;5018627;28;20051;-89
2023/04/06 07:42:34;;;;;;;45.22;15.68;;;;;;;;;;5012254;28;20034;-83
2023/04/06 07:47:59;;;;;;;41.60;17.60;;;;;;;;;;5057057;22;20137;-82
2023/04/06 07:50:24;;;;;;;59.20;17.90;;;;;;;;;;5053255;28;20454;-82
2023/04/06 07:52:50;;;;;;;40.80;17.10;;;;;;;;;;5032374;28;20075;-87
2023/04/06 07:55:15;;;;;;;40.20;17.65;;;;;;;;;;5051588;28;20083;-84
2023/04/06 07:57:41;;;;;;;50.72;18.88;;;;;;;;;;5052094;28;20040;-86
2023/04/06 08:00:09;;;;;;;47.47;18.23;;;;;;;;;;5048707;28;20047;-85
2023/04/06 08:02:35;;;;;;;51.67;18.88;;;;;;;;;;5050701;28;20044;-86
2023/04/06 08:05:01;;;;;;;41.42;18.10;;;;;;;;;;5045588;28;20037;-82
2023/04/06 08:07:27;;;;;;;51.85;18.40;;;;;;;;;;5041937;28;20136;-84
2023/04/06 08:09:52;;;;;;;50.97;19.05;;;;;;;;;;5040132;28;20086;-84
2023/04/06 08:12:18;;;;;;;45.42;18.08;;;;;;;;;;5046778;28;20035;-86
2023/04/06 08:14:44;;;;;;;52.13;18.02;;;;;;;;;;5054687;28;20021;-87
2023/04/06 08:17:10;;;;;;;54.78;19.70;;;;;;;;;;5052819;28;20028;-86
2023/04/06 08:19:35;;;;;;;51.75;19.98;;;;;;;;;;5049393;28;20025;-86
2023/04/06 08:22:01;;;;;;;49.42;20.35;;;;;;;;;;5048740;28;20029;-86
2023/04/06 08:24:27;;;;;;;62.25;23.50;;;;;;;;;;5044985;28;20120;-85
2023/04/06 08:26:53;;;;;;;59.70;23.00;;;;;;;;;;5050647;28;20686;-85
2023/04/06 08:29:21;;;;;;;61.65;19.77;;;;;;;;;;5048905;28;20088;-84
2023/04/06 08:31:47;;;;;;;60.30;28.40;;;;;;;;;;5050286;28;20025;-85
2023/04/06 08:34:12;;;;;;;49.58;18.63;;;;;;;;;;5052815;28;20521;-85
2023/04/06 08:36:38;;;;;;;47.55;18.88;;;;;;;;;;5050282;28;20033;-84
2023/04/06 08:39:04;;;;;;;51.60;18.77;;;;;;;;;;5048907;28;20033;-84
2023/04/06 08:41:30;;;;;;;45.50;18.88;;;;;;;;;;5045936;28;20024;-85
2023/04/06 08:44:02;;;;;;;50.20;18.63;;;;;;;;;;5056129;28;20135;-85
2023/04/06 08:46:32;;;;;;;52.78;19.60;;;;;;;;;;5016527;28;20044;-85
2023/04/06 08:48:59;;;;;;;44.10;18.70;;;;;;;;;;5056081;28;20033;-88
2023/04/06 08:51:28;;;;;;;48.78;20.27;;;;;;;;;;5066504;28;20413;-88
2023/04/06 08:53:55;;;;;;;57.72;19.05;;;;;;;;;;5071600;28;20028;-87
2023/04/06 08:56:24;;;;;;;43.55;17.85;;;;;;;;;;5048178;28;20071;-85
2023/04/06 08:58:50;;;;;;;51.80;18.48;;;;;;;;;;5040869;28;20060;-86
2023/04/06 09:01:26;;;;;;;42.15;17.67;;;;;;;;;;5050409;28;20075;-87
2023/04/06 09:03:56;;;;;;;49.63;19.35;;;;;;;;;;5039579;28;20067;-86
2023/04/06 09:06:22;;;;;;;;;;;;;;;;;;5036382;28;20103;-85
2023/04/06 09:08:47;;;;;;;152.73;54.35;;;;;;;;;;5055030;28;20265;-86
2023/04/06 09:11:13;;;;;;;40.40;16.88;;;;;;;;;;5061818;28;20041;-87
2023/04/06 09:13:50;;;;;;;43.63;18.50;;;;;;;;;;5064511;28;20033;-86
2023/04/06 09:16:16;;;;;;;43.95;17.45;;;;;;;;;;5054305;28;20103;-84
2023/04/06 09:18:42;;;;;;;38.40;16.73;;;;;;;;;;5039301;28;20843;-85
2023/04/06 09:21:08;;;;;;;42.67;18.77;;;;;;;;;;5053422;28;20052;-85
2023/04/06 09:23:34;;;;;;;43.83;16.83;;;;;;;;;;5054685;28;20324;-84
2023/04/06 09:26:16;;;;;;;38.55;16.30;;;;;;;;;;5052713;28;20052;-87
2023/04/06 09:28:52;;;;;;;42.60;17.08;;;;;;;;;;5055315;28;20446;-87
2023/04/06 09:31:25;;;;;;;33.05;14.85;;;;;;;;;;5035621;28;20088;-84
2023/04/06 09:33:51;;;;;;;34.40;14.05;;;;;;;;;;5053108;28;20289;-84
2023/04/06 09:36:17;;;;;;;33.90;15.15;;;;;;;;;;5054203;28;20033;-87
2023/04/06 09:38:59;;;;;;;37.28;15.75;;;;;;;;;;5055430;28;20216;-85
2023/04/06 09:41:29;;;;;;;38.42;15.38;;;;;;;;;;5039693;28;20033;-86
2023/04/06 09:44:04;;;;;;;36.58;15.43;;;;;;;;;;5036314;28;20049;-87
2023/04/06 09:46:35;;;;;;;41.90;15.60;;;;;;;;;;5052023;28;20033;-86
2023/04/06 09:49:02;;;;;;;35.10;15.43;;;;;;;;;;5059195;28;20040;-86
2023/04/06 09:51:29;;;;;;;35.05;15.05;;;;;;;;;;5050547;28;20044;-85
2023/04/06 09:53:55;;;;;;;37.15;14.43;;;;;;;;;;5069021;28;20033;-85
2023/04/06 09:56:24;;;;;;;56.00;23.17;;;;;;;;;;5057635;28;20446;-86
2023/04/06 09:58:50;;;;;;;33.60;12.87;;;;;;;;;;5050937;28;20037;-85
2023/04/06 10:01:16;;;;;;;29.33;13.88;;;;;;;;;;5042978;28;20106;-85
2023/04/06 10:04:02;;;;;;;27.63;13.38;;;;;;;;;;5060367;28;20136;-86
2023/04/06 10:06:28;;;;;;;32.80;13.48;;;;;;;;;;5067284;28;20033;-86
2023/04/06 10:08:55;;;;;;;29.50;13.15;;;;;;;;;;5064390;28;20028;-86
2023/04/06 10:11:20;;;;;;;38.40;13.85;;;;;;;;;;5059997;28;20039;-87
2023/04/06 10:13:48;;;;;;;29.38;14.43;;;;;;;;;;5057674;28;20029;-86
2023/04/06 10:16:13;;;;;;;30.08;13.23;;;;;;;;;;5058284;28;20028;-86
2023/04/06 10:18:39;;;;;;;30.02;14.18;;;;;;;;;;5066211;28;20041;-86
2023/04/06 10:21:08;;;;;;;30.20;14.23;;;;;;;;;;5043510;28;20534;-88
2023/04/06 10:23:35;;;;;;;28.88;13.98;;;;;;;;;;5055451;28;20087;-84
2023/04/06 10:26:01;;;;;;;32.03;14.02;;;;;;;;;;5057785;28;20027;-84
2023/04/06 10:28:36;;;;;;;34.55;14.90;;;;;;;;;;5055818;28;20378;-86
2023/04/06 10:31:07;;;;;;;28.63;12.68;;;;;;;;;;5055813;28;20358;-86
2023/04/06 10:33:32;;;;;;;29.90;12.70;;;;;;;;;;5054844;28;20033;-85
2023/04/06 10:36:09;;;;;;;25.83;13.30;;;;;;;;;;5056894;28;20028;-85
2023/04/06 10:38:38;;;;;;;21.70;12.43;;;;;;;;;;5057309;28;20037;-85
2023/04/06 10:41:05;;;;;;;48.63;13.45;;;;;;;;;;5061692;28;20039;-87
2023/04/06 10:43:33;;;;;;;29.13;12.65;;;;;;;;;;5055359;28;20029;-88
2023/04/06 10:46:00;;;;;;;29.40;13.10;;;;;;;;;;5055930;28;20029;-87
2023/04/06 10:48:40;;;;;;;28.77;13.43;;;;;;;;;;5054357;28;20029;-85
2023/04/06 10:51:16;;;;;;;26.55;12.45;;;;;;;;;;5022012;28;20600;-87
2023/04/06 10:53:49;;;;;;;23.75;12.57;;;;;;;;;;5038394;28;20055;-87
2023/04/06 10:56:16;;;;;;;28.85;13.68;;;;;;;;;;5058187;28;20025;-87
2023/04/06 10:58:49;;;;;;;24.17;12.52;;;;;;;;;;5038598;28;20067;-87
2023/04/06 11:01:20;;;;;;;25.35;12.27;;;;;;;;;;5042676;28;20029;-85
2023/04/06 11:03:47;;;;;;;28.60;14.00;;;;;;;;;;5056897;28;20083;-86
2023/04/06 11:06:23;;;;;;;26.30;12.02;;;;;;;;;;5055737;28;20028;-86
2023/04/06 11:08:49;;;;;;;28.05;13.05;;;;;;;;;;5055739;28;20036;-83
2023/04/06 11:11:17;;;;;;;27.85;11.52;;;;;;;;;;5038523;28;20036;-87
2023/04/06 11:13:51;;;;;;;21.10;11.10;;;;;;;;;;5052950;28;20036;-87
2023/04/06 11:16:26;;;;;;;19.83;9.75;;;;;;;;;;5057245;28;20037;-88
2023/04/06 11:18:55;;;;;;;25.45;12.23;;;;;;;;;;5055481;28;20174;-89
2023/04/06 11:21:32;;;;;;;23.50;11.40;;;;;;;;;;5040013;28;20374;-86
2023/04/06 11:24:27;;;;;;;24.70;11.30;;;;;;;;;;5033546;28;20040;-88
2023/04/06 11:26:53;;;;;;;31.45;11.50;;;;;;;;;;5054231;28;20029;-88
2023/04/06 11:29:20;;;;;;;30.05;11.13;;;;;;;;;;5055083;28;20033;-89
2023/04/06 11:31:52;;;;;;;20.02;10.88;;;;;;;;;;5053856;28;20044;-89
2023/04/06 11:34:22;;;;;;;20.77;9.93;;;;;;;;;;5039160;28;20036;-88
2023/04/06 11:36:48;;;;;;;23.15;10.60;;;;;;;;;;5042530;28;20431;-90
2023/04/06 11:39:21;;;;;;;20.70;10.77;;;;;;;;;;5055072;28;20036;-89
2023/04/06 11:41:54;;;;;;;26.23;11.45;;;;;;;;;;5036773;28;20351;-86
2023/04/06 11:44:34;;;;;;;21.90;10.07;;;;;;;;;;5071241;28;20618;-89
2023/04/06 11:47:03;;;;;;;23.75;9.35;;;;;;;;;;5055712;28;20049;-87
2023/04/06 11:49:30;;;;;;;22.50;9.75;;;;;;;;;;5052912;28;20095;-88
2023/04/06 11:51:56;;;;;;;17.98;9.80;;;;;;;;;;5054800;28;20029;-93
2023/04/06 11:54:35;;;;;;;24.35;9.70;;;;;;;;;;5022200;28;20029;-91
2023/04/06 11:57:01;;;;;;;20.52;10.18;;;;;;;;;;5056845;28;20025;-93
2023/04/06 11:59:27;;;;;;;21.50;9.88;;;;;;;;;;5054901;28;20120;-87
2023/04/06 12:01:53;;;;;;;19.48;8.88;;;;;;;;;;5057234;28;20072;-85
2023/04/06 12:04:18;;;;;;;18.67;8.68;;;;;;;;;;5062092;28;20029;-89
2023/04/06 12:06:44;;;;;;;17.95;8.70;;;;;;;;;;5046454;28;20036;-86
2023/04/06 12:09:10;;;;;;;17.90;8.90;;;;;;;;;;5022465;28;20029;-89
2023/04/06 12:11:35;;;;;;;26.15;12.38;;;;;;;;;;5057849;28;20074;-88
2023/04/06 12:14:04;;;;;;;14.70;8.35;;;;;;;;;;5056872;28;20114;-88
2023/04/06 12:16:34;;;;;;;17.13;9.10;;;;;;;;;;5059811;28;20104;-84
2023/04/06 12:18:59;;;;;;;15.03;8.27;;;;;;;;;;5054836;28;20029;-86
2023/04/06 12:21:27;;;;;;;16.70;8.80;;;;;;;;;;5053322;28;20025;-84
2023/04/06 12:23:52;;;;;;;17.30;8.98;;;;;;;;;;5053581;28;20374;-84
2023/04/06 12:26:18;;;;;;;17.75;8.48;;;;;;;;;;5058584;28;20029;-81
2023/04/06 12:28:44;;;;;;;20.85;8.75;;;;;;;;;;5053401;28;20079;-80
2023/04/06 12:31:15;;;;;;;18.85;9.00;;;;;;;;;;5053806;28;20044;-81
2023/04/06 12:33:41;;;;;;;15.90;8.27;;;;;;;;;;5053128;28;20021;-83
2023/04/06 12:36:12;;;;;;;14.75;7.93;;;;;;;;;;5053715;28;20081;-85
2023/04/06 12:38:39;;;;;;;14.70;7.70;;;;;;;;;;5035813;28;20116;-84
2023/04/06 12:41:05;;;;;;;16.10;8.60;;;;;;;;;;5052258;28;20025;-84
2023/04/06 12:43:30;;;;;;;16.95;8.30;;;;;;;;;;5052173;28;20454;-84
2023/04/06 12:45:56;;;;;;;16.42;8.25;;;;;;;;;;5053969;28;20022;-84
2023/04/06 12:48:21;;;;;;;19.27;8.70;;;;;;;;;;5061710;28;20028;-84
2023/04/06 12:50:55;;;;;;;16.27;7.40;;;;;;;;;;5054482;28;20027;-84
2023/04/06 12:53:20;;;;;;;15.55;7.72;;;;;;;;;;5054381;28;20131;-83
2023/04/06 12:55:46;;;;;;;17.50;8.77;;;;;;;;;;5053605;28;20064;-84
2023/04/06 12:58:11;;;;;;;12.55;8.30;;;;;;;;;;5053221;28;20025;-84
2023/04/06 13:00:37;;;;;;;14.48;7.80;;;;;;;;;;5053715;28;20040;-83
2023/04/06 13:03:02;;;;;;;14.70;7.50;;;;;;;;;;5053318;28;20112;-82
2023/04/06 13:05:28;;;;;;;15.35;8.10;;;;;;;;;;5053493;28;20025;-84
2023/04/06 13:07:53;;;;;;;43.08;17.10;;;;;;;;;;5058276;28;20035;-83
2023/04/06 13:10:19;;;;;;;19.73;10.00;;;;;;;;;;5055907;28;20063;-83
2023/04/06 13:12:44;;;;;;;21.08;10.00;;;;;;;;;;5053772;28;20118;-84
2023/04/06 13:15:10;;;;;;;30.00;17.58;;;;;;;;;;5053547;28;20044;-84
2023/04/06 13:17:35;;;;;;;15.90;7.88;;;;;;;;;;5047298;28;20047;-84
2023/04/06 13:20:01;;;;;;;13.98;7.38;;;;;;;;;;5051839;28;20434;-85
2023/04/06 13:22:26;;;;;;;11.63;6.47;;;;;;;;;;5053751;28;20100;-83
2023/04/06 13:24:52;;;;;;;14.88;8.35;;;;;;;;;;5053347;28;20040;-84
2023/04/06 13:27:17;;;;;;;13.73;7.65;;;;;;;;;;5053409;28;20178;-84
2023/04/06 13:29:43;;;;;;;15.35;6.57;;;;;;;;;;5056342;28;20111;-82
2023/04/06 13:32:10;;;;;;;11.52;7.22;;;;;;;;;;5054947;28;20037;-84
2023/04/06 13:34:35;;;;;;;15.05;7.10;;;;;;;;;;5053085;28;20439;-84
2023/04/06 13:37:01;;;;;;;12.52;6.80;;;;;;;;;;5054580;28;20025;-84
2023/04/06 13:39:26;;;;;;;13.32;6.78;;;;;;;;;;5056892;28;20040;-83
2023/04/06 13:41:55;;;;;;;11.90;6.32;;;;;;;;;;5056403;28;20041;-84
2023/04/06 13:44:21;;;;;;;11.90;7.00;;;;;;;;;;5056805;28;20362;-83
2023/04/06 13:46:47;;;;;;;11.05;6.63;;;;;;;;;;5055333;28;20132;-84
2023/04/06 13:49:13;;;;;;;11.15;5.78;;;;;;;;;;5064446;28;20029;-84
2023/04/06 13:51:38;;;;;;;13.63;7.32;;;;;;;;;;5060692;28;20025;-84
2023/04/06 13:54:04;;;;;;;16.55;7.35;;;;;;;;;;5055445;28;20021;-85
2023/04/06 13:56:30;;;;;;;10.90;5.68;;;;;;;;;;5055200;28;20021;-86
2023/04/06 13:58:56;;;;;;;10.73;6.50;;;;;;;;;;5056682;28;20347;-85
2023/04/06 14:01:21;;;;;;;11.23;6.82;;;;;;;;;;5056530;28;20457;-84
2023/04/06 14:03:48;;;;;;;12.48;7.07;;;;;;;;;;5056506;28;20033;-85
2023/04/06 14:06:14;;;;;;;15.98;8.40;;;;;;;;;;5056565;28;20032;-83
2023/04/06 14:08:40;;;;;;;15.40;6.80;;;;;;;;;;5057527;28;20331;-84
2023/04/06 14:11:07;;;;;;;13.25;8.20;;;;;;;;;;5056779;28;20032;-84
2023/04/06 14:13:33;;;;;;;11.95;6.70;;;;;;;;;;5039492;28;20156;-83
2023/04/06 14:15:59;;;;;;;10.93;6.85;;;;;;;;;;5055011;28;20057;-85
2023/04/06 14:18:28;;;;;;;14.40;6.63;;;;;;;;;;5050508;28;20111;-84
2023/04/06 14:20:55;;;;;;;17.08;7.15;;;;;;;;;;5055721;28;20443;-85
2023/04/06 14:23:20;;;;;;;18.00;7.30;;;;;;;;;;5056042;28;20028;-84
2023/04/06 14:25:46;;;;;;;17.58;7.55;;;;;;;;;;5055470;28;20020;-84
2023/04/06 14:28:12;;;;;;;14.32;6.38;;;;;;;;;;5038156;28;20029;-84
2023/04/06 14:30:37;;;;;;;13.05;6.28;;;;;;;;;;5057367;28;20485;-84
2023/04/06 14:33:03;;;;;;;14.20;7.05;;;;;;;;;;5058615;28;20060;-83
2023/04/06 14:35:30;;;;;;;15.60;7.03;;;;;;;;;;5056049;28;20048;-84
2023/04/06 14:37:57;;;;;;;14.15;7.32;;;;;;;;;;5055479;28;20029;-85
2023/04/06 14:40:23;;;;;;;17.35;7.65;;;;;;;;;;5053689;28;20129;-85
2023/04/06 14:42:50;;;;;;;13.50;7.50;;;;;;;;;;5055543;28;20087;-84